sensor_id;sensor_type;location;lat;lon;timestamp;pressure;altitude;pressure_sealevel;temperature;humidity
46782;BME280;32541;46.298;11.506;2023-05-16T00:01:08;88831.44;;;7.76;78.59
46782;BME280;32541;46.298;11.506;2023-05-16T00:03:34;88837.34;;;7.63;79.93
46782;BME280;32541;46.298;11.506;2023-05-16T00:06:02;88834.75;;;7.65;79.75
46782;BME280;32541;46.298;11.506;2023-05-16T00:08:27;88825.22;;;7.76;79.72
46782;BME280;32541;46.298;11.506;2023-05-16T00:10:53;88830.16;;;7.58;79.72
46782;BME280;32541;46.298;11.506;2023-05-16T00:13:18;88812.59;;;7.52;79.71
46782;BME280;32541;46.298;11.506;2023-05-16T00:15:49;88814.91;;;7.55;79.62
46782;BME280;32541;46.298;11.506;2023-05-16T00:18:16;88812.47;;;7.59;79.28
46782;BME280;32541;46.298;11.506;2023-05-16T00:20:42;88809.28;;;7.63;79.70
46782;BME280;32541;46.298;11.506;2023-05-16T00:23:07;88804.50;;;7.63;79.38
46782;BME280;32541;46.298;11.506;2023-05-16T00:25:33;88804.97;;;7.50;80.93
46782;BME280;32541;46.298;11.506;2023-05-16T00:27:58;88814.78;;;7.24;80.06
46782;BME280;32541;46.298;11.506;2023-05-16T00:30:23;88811.22;;;7.03;81.78
46782;BME280;32541;46.298;11.506;2023-05-16T00:32:49;88807.16;;;7.13;81.71
46782;BME280;32541;46.298;11.506;2023-05-16T00:35:14;88801.69;;;7.23;81.68
46782;BME280;32541;46.298;11.506;2023-05-16T00:37:39;88799.69;;;7.33;81.30
46782;BME280;32541;46.298;11.506;2023-05-16T00:40:06;88795.22;;;7.28;82.38
46782;BME280;32541;46.298;11.506;2023-05-16T00:42:31;88795.94;;;7.28;81.79
46782;BME280;32541;46.298;11.506;2023-05-16T00:44:57;88793.31;;;7.40;81.37
46782;BME280;32541;46.298;11.506;2023-05-16T00:47:22;88794.34;;;7.25;81.49
46782;BME280;32541;46.298;11.506;2023-05-16T00:49:48;88789.31;;;7.22;82.39
46782;BME280;32541;46.298;11.506;2023-05-16T00:52:13;88788.16;;;7.25;81.51
46782;BME280;32541;46.298;11.506;2023-05-16T00:54:39;88791.91;;;7.20;82.21
46782;BME280;32541;46.298;11.506;2023-05-16T00:57:05;88785.72;;;7.19;82.29
46782;BME280;32541;46.298;11.506;2023-05-16T00:59:31;88787.59;;;7.17;82.98
46782;BME280;32541;46.298;11.506;2023-05-16T01:01:57;88783.28;;;7.14;82.61
46782;BME280;32541;46.298;11.506;2023-05-16T01:04:23;88775.50;;;7.20;81.62
46782;BME280;32541;46.298;11.506;2023-05-16T01:06:49;88780.56;;;7.23;80.97
46782;BME280;32541;46.298;11.506;2023-05-16T01:09:14;88774.06;;;7.19;81.65
46782;BME280;32541;46.298;11.506;2023-05-16T01:12:10;88781.41;;;7.07;82.01
46782;BME280;32541;46.298;11.506;2023-05-16T01:28:18;88765.16;;;6.90;81.61
46782;BME280;32541;46.298;11.506;2023-05-16T01:30:44;88755.69;;;6.91;82.34
46782;BME280;32541;46.298;11.506;2023-05-16T01:33:09;88753.38;;;6.97;81.79
46782;BME280;32541;46.298;11.506;2023-05-16T01:38:24;88754.53;;;6.94;81.34
46782;BME280;32541;46.298;11.506;2023-05-16T01:40:54;88741.00;;;6.96;81.58
46782;BME280;32541;46.298;11.506;2023-05-16T01:43:32;88746.63;;;6.88;82.43
46782;BME280;32541;46.298;11.506;2023-05-16T01:46:03;88743.31;;;6.80;81.70
46782;BME280;32541;46.298;11.506;2023-05-16T01:49:04;88747.63;;;6.93;81.14
46782;BME280;32541;46.298;11.506;2023-05-16T01:51:38;88748.34;;;6.74;81.25
46782;BME280;32541;46.298;11.506;2023-05-16T01:54:10;88741.59;;;6.75;81.61
46782;BME280;32541;46.298;11.506;2023-05-16T01:56:36;88742.31;;;6.66;83.13
46782;BME280;32541;46.298;11.506;2023-05-16T01:59:03;88737.13;;;6.60;82.80
46782;BME280;32541;46.298;11.506;2023-05-16T02:01:29;88735.28;;;6.72;82.01
46782;BME280;32541;46.298;11.506;2023-05-16T02:03:55;88734.13;;;6.76;80.83
46782;BME280;32541;46.298;11.506;2023-05-16T02:06:21;88731.53;;;6.58;82.81
46782;BME280;32541;46.298;11.506;2023-05-16T02:08:46;88723.34;;;6.49;84.02
46782;BME280;32541;46.298;11.506;2023-05-16T02:11:13;88726.06;;;6.58;83.06
46782;BME280;32541;46.298;11.506;2023-05-16T02:13:38;88723.03;;;6.54;82.79
46782;BME280;32541;46.298;11.506;2023-05-16T02:16:04;88724.06;;;6.49;82.20
46782;BME280;32541;46.298;11.506;2023-05-16T02:18:29;88724.06;;;6.49;81.03
46782;BME280;32541;46.298;11.506;2023-05-16T02:20:55;88722.34;;;6.44;80.91
46782;BME280;32541;46.298;11.506;2023-05-16T02:23:20;88722.75;;;6.41;82.01
46782;BME280;32541;46.298;11.506;2023-05-16T02:25:46;88728.06;;;6.29;83.44
46782;BME280;32541;46.298;11.506;2023-05-16T02:28:11;88722.00;;;6.21;83.61
46782;BME280;32541;46.298;11.506;2023-05-16T02:30:36;88724.28;;;6.15;84.36
46782;BME280;32541;46.298;11.506;2023-05-16T02:33:02;88719.44;;;6.23;83.91
46782;BME280;32541;46.298;11.506;2023-05-16T02:35:27;88711.38;;;6.25;83.73
46782;BME280;32541;46.298;11.506;2023-05-16T02:37:52;88710.25;;;6.28;83.07
46782;BME280;32541;46.298;11.506;2023-05-16T02:40:18;88701.91;;;6.26;83.23
46782;BME280;32541;46.298;11.506;2023-05-16T02:42:43;88699.75;;;6.34;82.88
46782;BME280;32541;46.298;11.506;2023-05-16T02:45:09;88694.72;;;6.31;82.81
46782;BME280;32541;46.298;11.506;2023-05-16T02:47:34;88687.25;;;6.31;83.30
46782;BME280;32541;46.298;11.506;2023-05-16T02:50:00;88685.09;;;6.30;83.42
46782;BME280;32541;46.298;11.506;2023-05-16T02:52:25;88671.28;;;6.28;83.47
46782;BME280;32541;46.298;11.506;2023-05-16T02:54:50;88671.88;;;6.36;83.52
46782;BME280;32541;46.298;11.506;2023-05-16T02:57:16;88673.59;;;6.22;84.38
46782;BME280;32541;46.298;11.506;2023-05-16T02:59:41;88676.19;;;6.20;84.56
46782;BME280;32541;46.298;11.506;2023-05-16T03:02:07;88669.69;;;6.15;85.32
46782;BME280;32541;46.298;11.506;2023-05-16T03:04:32;88661.81;;;6.19;84.59
46782;BME280;32541;46.298;11.506;2023-05-16T03:06:58;88663.97;;;6.11;86.25
46782;BME280;32541;46.298;11.506;2023-05-16T03:09:23;88668.84;;;6.12;86.35
46782;BME280;32541;46.298;11.506;2023-05-16T03:11:48;88658.94;;;6.17;85.61
46782;BME280;32541;46.298;11.506;2023-05-16T03:14:14;88646.72;;;6.18;86.12
46782;BME280;32541;46.298;11.506;2023-05-16T03:16:39;88657.63;;;6.18;87.29
46782;BME280;32541;46.298;11.506;2023-05-16T03:19:07;88648.88;;;6.20;87.13
46782;BME280;32541;46.298;11.506;2023-05-16T03:21:32;88641.84;;;6.26;86.22
46782;BME280;32541;46.298;11.506;2023-05-16T03:23:58;88642.72;;;6.38;86.24
46782;BME280;32541;46.298;11.506;2023-05-16T03:26:24;88644.72;;;6.28;86.13
46782;BME280;32541;46.298;11.506;2023-05-16T03:28:49;88647.44;;;6.28;87.51
46782;BME280;32541;46.298;11.506;2023-05-16T03:31:15;88644.59;;;6.26;87.69
46782;BME280;32541;46.298;11.506;2023-05-16T03:33:41;88654.50;;;6.31;87.09
46782;BME280;32541;46.298;11.506;2023-05-16T03:36:07;88637.53;;;6.04;87.87
46782;BME280;32541;46.298;11.506;2023-05-16T03:38:32;88628.78;;;6.05;88.53
46782;BME280;32541;46.298;11.506;2023-05-16T03:40:58;88628.75;;;5.96;90.57
46782;BME280;32541;46.298;11.506;2023-05-16T03:43:23;88636.06;;;6.03;90.68
46782;BME280;32541;46.298;11.506;2023-05-16T03:45:49;88629.47;;;6.06;90.93
46782;BME280;32541;46.298;11.506;2023-05-16T03:48:14;88635.94;;;5.91;91.02
46782;BME280;32541;46.298;11.506;2023-05-16T03:50:39;88632.50;;;6.00;91.20
46782;BME280;32541;46.298;11.506;2023-05-16T03:53:05;88637.38;;;6.02;91.81
46782;BME280;32541;46.298;11.506;2023-05-16T03:55:30;88640.38;;;6.06;91.37
46782;BME280;32541;46.298;11.506;2023-05-16T03:57:56;88644.00;;;6.08;90.44
46782;BME280;32541;46.298;11.506;2023-05-16T04:00:21;88643.56;;;6.12;90.32
46782;BME280;32541;46.298;11.506;2023-05-16T04:02:47;88647.44;;;6.09;92.18
46782;BME280;32541;46.298;11.506;2023-05-16T04:05:12;88643.28;;;6.08;92.90
46782;BME280;32541;46.298;11.506;2023-05-16T04:07:38;88634.22;;;6.15;91.97
46782;BME280;32541;46.298;11.506;2023-05-16T04:10:04;88642.00;;;6.28;91.02
46782;BME280;32541;46.298;11.506;2023-05-16T04:12:30;88644.59;;;6.26;90.74
46782;BME280;32541;46.298;11.506;2023-05-16T04:14:56;88643.72;;;6.33;90.69
46782;BME280;32541;46.298;11.506;2023-05-16T04:17:21;88650.16;;;6.47;90.38
46782;BME280;32541;46.298;11.506;2023-05-16T04:19:47;88657.63;;;6.56;89.95
46782;BME280;32541;46.298;11.506;2023-05-16T04:22:12;88658.66;;;6.42;89.88
46782;BME280;32541;46.298;11.506;2023-05-16T04:24:38;88650.63;;;6.44;89.92
46782;BME280;32541;46.298;11.506;2023-05-16T04:27:03;88641.97;;;6.47;89.37
46782;BME280;32541;46.298;11.506;2023-05-16T04:29:29;88649.91;;;6.53;89.16
46782;BME280;32541;46.298;11.506;2023-05-16T04:31:56;88656.78;;;6.63;89.05
46782;BME280;32541;46.298;11.506;2023-05-16T04:34:21;88650.16;;;6.66;90.33
46782;BME280;32541;46.298;11.506;2023-05-16T04:36:52;88658.06;;;6.62;90.49
46782;BME280;32541;46.298;11.506;2023-05-16T04:39:17;88656.22;;;6.55;89.97
46782;BME280;32541;46.298;11.506;2023-05-16T04:41:43;88656.47;;;6.59;90.25
46782;BME280;32541;46.298;11.506;2023-05-16T04:44:08;88656.94;;;6.56;91.24
46782;BME280;32541;46.298;11.506;2023-05-16T04:46:35;88644.72;;;6.38;91.83
46782;BME280;32541;46.298;11.506;2023-05-16T04:49:00;88645.28;;;6.46;93.25
46782;BME280;32541;46.298;11.506;2023-05-16T04:51:26;88644.13;;;6.58;91.54
46782;BME280;32541;46.298;11.506;2023-05-16T04:53:51;88651.00;;;6.59;92.26
46782;BME280;32541;46.298;11.506;2023-05-16T04:56:17;88651.91;;;6.62;95.73
46782;BME280;32541;46.298;11.506;2023-05-16T04:58:44;88656.59;;;6.81;94.84
46782;BME280;32541;46.298;11.506;2023-05-16T05:01:10;88644.09;;;6.87;94.23
46782;BME280;32541;46.298;11.506;2023-05-16T05:03:35;88642.06;;;6.88;94.24
46782;BME280;32541;46.298;11.506;2023-05-16T05:06:01;88641.47;;;6.99;95.07
46782;BME280;32541;46.298;11.506;2023-05-16T05:08:27;88642.06;;;6.97;96.49
46782;BME280;32541;46.298;11.506;2023-05-16T05:10:54;88652.41;;;6.99;97.50
46782;BME280;32541;46.298;11.506;2023-05-16T05:13:20;88651.25;;;7.02;97.72
46782;BME280;32541;46.298;11.506;2023-05-16T05:15:46;88644.75;;;7.07;98.98
46782;BME280;32541;46.298;11.506;2023-05-16T05:18:11;88645.88;;;7.13;98.33
46782;BME280;32541;46.298;11.506;2023-05-16T05:20:36;88649.47;;;7.16;98.21
46782;BME280;32541;46.298;11.506;2023-05-16T05:23:02;88648.06;;;7.15;99.35
46782;BME280;32541;46.298;11.506;2023-05-16T05:25:27;88654.38;;;7.17;99.77
46782;BME280;32541;46.298;11.506;2023-05-16T05:27:53;88656.66;;;7.21;99.63
46782;BME280;32541;46.298;11.506;2023-05-16T05:30:18;88656.63;;;7.31;100.00
46782;BME280;32541;46.298;11.506;2023-05-16T05:32:43;88655.31;;;7.32;100.00
46782;BME280;32541;46.298;11.506;2023-05-16T05:35:09;88649.28;;;7.33;100.00
46782;BME280;32541;46.298;11.506;2023-05-16T05:37:34;88650.72;;;7.34;100.00
46782;BME280;32541;46.298;11.506;2023-05-16T05:40:00;88654.00;;;7.42;100.00
46782;BME280;32541;46.298;11.506;2023-05-16T05:42:25;88650.13;;;7.36;100.00
46782;BME280;32541;46.298;11.506;2023-05-16T05:44:51;88659.19;;;7.38;100.00
46782;BME280;32541;46.298;11.506;2023-05-16T05:47:16;88655.88;;;7.40;100.00
46782;BME280;32541;46.298;11.506;2023-05-16T05:49:42;88652.84;;;7.45;100.00
46782;BME280;32541;46.298;11.506;2023-05-16T05:52:08;88663.16;;;7.56;100.00
46782;BME280;32541;46.298;11.506;2023-05-16T05:54:33;88650.91;;;7.57;99.98
46782;BME280;32541;46.298;11.506;2023-05-16T05:56:59;88650.91;;;7.57;99.63
46782;BME280;32541;46.298;11.506;2023-05-16T05:59:24;88659.16;;;7.78;99.03
46782;BME280;32541;46.298;11.506;2023-05-16T06:01:50;88653.56;;;7.76;99.44
46782;BME280;32541;46.298;11.506;2023-05-16T06:04:19;88651.09;;;7.80;99.26
46782;BME280;32541;46.298;11.506;2023-05-16T06:06:45;88643.22;;;7.96;98.98
46782;BME280;32541;46.298;11.506;2023-05-16T06:09:10;88644.84;;;7.90;100.00
46782;BME280;32541;46.298;11.506;2023-05-16T06:11:38;88642.50;;;7.96;100.00
46782;BME280;32541;46.298;11.506;2023-05-16T06:14:03;88634.94;;;8.06;100.00
46782;BME280;32541;46.298;11.506;2023-05-16T06:16:29;88638.28;;;8.04;98.95
46782;BME280;32541;46.298;11.506;2023-05-16T06:18:55;88639.84;;;8.07;100.00
46782;BME280;32541;46.298;11.506;2023-05-16T06:21:20;88636.31;;;8.16;100.00
46782;BME280;32541;46.298;11.506;2023-05-16T06:23:46;88652.38;;;8.10;100.00
46782;BME280;32541;46.298;11.506;2023-05-16T06:26:11;88654.19;;;8.17;100.00
46782;BME280;32541;46.298;11.506;2023-05-16T06:28:37;88648.63;;;8.27;100.00
46782;BME280;32541;46.298;11.506;2023-05-16T06:31:02;88641.50;;;8.43;99.89
46782;BME280;32541;46.298;11.506;2023-05-16T06:33:28;88627.69;;;8.53;99.09
46782;BME280;32541;46.298;11.506;2023-05-16T06:35:53;88629.56;;;8.71;99.47
46782;BME280;32541;46.298;11.506;2023-05-16T06:38:19;88627.94;;;8.78;99.89
46782;BME280;32541;46.298;11.506;2023-05-16T06:40:44;88632.09;;;8.79;99.01
46782;BME280;32541;46.298;11.506;2023-05-16T06:43:10;88621.38;;;8.83;98.48
46782;BME280;32541;46.298;11.506;2023-05-16T06:45:36;88624.13;;;8.83;98.31
46782;BME280;32541;46.298;11.506;2023-05-16T06:48:02;88627.59;;;8.83;97.63
46782;BME280;32541;46.298;11.506;2023-05-16T06:50:27;88629.16;;;8.86;98.38
46782;BME280;32541;46.298;11.506;2023-05-16T06:52:53;88626.78;;;8.92;98.50
46782;BME280;32541;46.298;11.506;2023-05-16T06:55:18;88627.03;;;8.97;98.31
46782;BME280;32541;46.298;11.506;2023-05-16T06:57:44;88633.75;;;9.17;98.67
46782;BME280;32541;46.298;11.506;2023-05-16T07:00:09;88638.06;;;9.20;97.39
46782;BME280;32541;46.298;11.506;2023-05-16T07:02:35;88632.56;;;9.20;96.37
46782;BME280;32541;46.298;11.506;2023-05-16T07:05:00;88628.28;;;9.17;93.11
46782;BME280;32541;46.298;11.506;2023-05-16T07:07:26;88626.25;;;9.17;91.51
46782;BME280;32541;46.298;11.506;2023-05-16T07:09:51;88632.94;;;9.26;91.96
46782;BME280;32541;46.298;11.506;2023-05-16T07:12:16;88629.25;;;9.33;93.49
46782;BME280;32541;46.298;11.506;2023-05-16T07:14:42;88631.91;;;9.54;92.66
46782;BME280;32541;46.298;11.506;2023-05-16T07:17:08;88630.47;;;9.53;90.75
46782;BME280;32541;46.298;11.506;2023-05-16T07:19:33;88622.38;;;9.55;91.08
46782;BME280;32541;46.298;11.506;2023-05-16T07:21:58;88619.72;;;9.57;92.80
46782;BME280;32541;46.298;11.506;2023-05-16T07:24:24;88622.38;;;9.55;90.95
46782;BME280;32541;46.298;11.506;2023-05-16T07:26:49;88617.09;;;9.59;91.54
46782;BME280;32541;46.298;11.506;2023-05-16T07:29:15;88611.75;;;9.61;90.86
46782;BME280;32541;46.298;11.506;2023-05-16T07:31:41;88617.59;;;9.67;89.13
46782;BME280;32541;46.298;11.506;2023-05-16T07:34:06;88619.00;;;9.68;86.44
46782;BME280;32541;46.298;11.506;2023-05-16T07:36:33;88623.09;;;9.79;83.75
46782;BME280;32541;46.298;11.506;2023-05-16T07:38:59;88620.44;;;9.58;93.23
46782;BME280;32541;46.298;11.506;2023-05-16T07:41:24;88630.94;;;9.38;92.48
46782;BME280;32541;46.298;11.506;2023-05-16T07:43:50;88637.78;;;9.04;93.16
46782;BME280;32541;46.298;11.506;2023-05-16T07:46:15;88625.88;;;9.00;89.88
46782;BME280;32541;46.298;11.506;2023-05-16T07:48:41;88633.06;;;8.83;89.93
46782;BME280;32541;46.298;11.506;2023-05-16T07:51:06;88629.25;;;8.88;90.92
46782;BME280;32541;46.298;11.506;2023-05-16T07:53:32;88628.63;;;8.67;89.69
46782;BME280;32541;46.298;11.506;2023-05-16T07:55:57;88624.97;;;8.53;89.30
46782;BME280;32541;46.298;11.506;2023-05-16T07:58:22;88631.16;;;8.53;90.09
46782;BME280;32541;46.298;11.506;2023-05-16T08:00:48;88627.38;;;8.58;90.62
46782;BME280;32541;46.298;11.506;2023-05-16T08:03:14;88629.94;;;8.77;88.86
46782;BME280;32541;46.298;11.506;2023-05-16T08:05:40;88631.97;;;8.77;88.57
46782;BME280;32541;46.298;11.506;2023-05-16T08:08:05;88629.34;;;8.79;89.74
46782;BME280;32541;46.298;11.506;2023-05-16T08:10:31;88634.13;;;8.78;92.07
46782;BME280;32541;46.298;11.506;2023-05-16T08:12:56;88621.03;;;8.88;89.31
46782;BME280;32541;46.298;11.506;2023-05-16T08:15:21;88631.81;;;8.96;89.46
46782;BME280;32541;46.298;11.506;2023-05-16T08:17:47;88628.13;;;9.15;89.37
46782;BME280;32541;46.298;11.506;2023-05-16T08:20:12;88625.75;;;9.21;88.97
46782;BME280;32541;46.298;11.506;2023-05-16T08:22:38;88625.31;;;9.36;88.92
46782;BME280;32541;46.298;11.506;2023-05-16T08:25:03;88615.44;;;9.54;89.18
46782;BME280;32541;46.298;11.506;2023-05-16T08:27:29;88622.72;;;9.73;87.58
46782;BME280;32541;46.298;11.506;2023-05-16T08:29:54;88630.22;;;10.07;83.12
46782;BME280;32541;46.298;11.506;2023-05-16T08:32:21;88626.75;;;9.95;82.69
46782;BME280;32541;46.298;11.506;2023-05-16T08:34:47;88630.00;;;9.80;84.59
46782;BME280;32541;46.298;11.506;2023-05-16T08:37:12;88629.41;;;9.81;84.38
46782;BME280;32541;46.298;11.506;2023-05-16T08:39:38;88628.31;;;9.75;87.07
46782;BME280;32541;46.298;11.506;2023-05-16T08:42:03;88627.84;;;9.78;88.39
46782;BME280;32541;46.298;11.506;2023-05-16T08:44:30;88638.56;;;9.86;87.81
46782;BME280;32541;46.298;11.506;2023-05-16T08:46:56;88649.09;;;9.89;86.78
46782;BME280;32541;46.298;11.506;2023-05-16T08:49:26;88655.31;;;9.90;87.19
46782;BME280;32541;46.298;11.506;2023-05-16T08:51:56;88652.34;;;9.97;86.73
46782;BME280;32541;46.298;11.506;2023-05-16T08:54:22;88651.25;;;10.02;85.96
46782;BME280;32541;46.298;11.506;2023-05-16T08:56:48;88652.69;;;10.03;84.58
46782;BME280;32541;46.298;11.506;2023-05-16T08:59:15;88662.94;;;10.03;85.65
46782;BME280;32541;46.298;11.506;2023-05-16T09:01:40;88663.53;;;10.01;85.71
46782;BME280;32541;46.298;11.506;2023-05-16T09:04:07;88667.72;;;10.02;87.14
46782;BME280;32541;46.298;11.506;2023-05-16T09:06:34;88664.84;;;10.12;87.46
46782;BME280;32541;46.298;11.506;2023-05-16T09:08:59;88668.69;;;10.19;87.25
46782;BME280;32541;46.298;11.506;2023-05-16T09:11:25;88681.13;;;10.20;87.10
46782;BME280;32541;46.298;11.506;2023-05-16T09:13:50;88679.81;;;10.21;87.28
46782;BME280;32541;46.298;11.506;2023-05-16T09:16:17;88692.34;;;10.24;87.35
46782;BME280;32541;46.298;11.506;2023-05-16T09:18:54;88684.94;;;10.26;89.23
46782;BME280;32541;46.298;11.506;2023-05-16T09:21:25;88688.97;;;10.25;89.31
46782;BME280;32541;46.298;11.506;2023-05-16T09:23:51;88682.91;;;10.27;89.75
46782;BME280;32541;46.298;11.506;2023-05-16T09:26:17;88687.31;;;10.32;91.33
46782;BME280;32541;46.298;11.506;2023-05-16T09:28:42;88681.56;;;10.28;92.10
46782;BME280;32541;46.298;11.506;2023-05-16T09:31:25;88685.41;;;10.34;91.78
46782;BME280;32541;46.298;11.506;2023-05-16T09:33:56;88688.03;;;10.44;90.86
46782;BME280;32541;46.298;11.506;2023-05-16T09:36:22;88682.97;;;10.52;91.32
46782;BME280;32541;46.298;11.506;2023-05-16T09:38:51;88687.16;;;10.53;91.65
46782;BME280;32541;46.298;11.506;2023-05-16T09:41:17;88698.56;;;10.24;84.97
46782;BME280;32541;46.298;11.506;2023-05-16T09:43:43;88699.22;;;9.67;87.93
46782;BME280;32541;46.298;11.506;2023-05-16T09:46:15;88696.66;;;9.47;88.44
46782;BME280;32541;46.298;11.506;2023-05-16T09:48:44;88704.41;;;9.39;89.93
46782;BME280;32541;46.298;11.506;2023-05-16T09:51:10;88706.59;;;9.53;91.71
46782;BME280;32541;46.298;11.506;2023-05-16T09:53:37;88700.91;;;9.83;91.01
46782;BME280;32541;46.298;11.506;2023-05-16T09:56:07;88697.31;;;9.92;91.38
46782;BME280;32541;46.298;11.506;2023-05-16T09:58:36;88697.09;;;10.00;92.53
46782;BME280;32541;46.298;11.506;2023-05-16T10:01:02;88698.88;;;10.07;91.03
46782;BME280;32541;46.298;11.506;2023-05-16T10:03:28;88699.63;;;10.19;91.04
46782;BME280;32541;46.298;11.506;2023-05-16T10:05:54;88697.94;;;10.26;90.54
46782;BME280;32541;46.298;11.506;2023-05-16T10:08:21;88699.50;;;10.29;88.94
46782;BME280;32541;46.298;11.506;2023-05-16T10:10:52;88694.97;;;10.33;88.13
46782;BME280;32541;46.298;11.506;2023-05-16T10:13:22;88699.13;;;10.46;87.17
46782;BME280;32541;46.298;11.506;2023-05-16T10:15:48;88698.06;;;10.51;86.22
46782;BME280;32541;46.298;11.506;2023-05-16T10:18:16;88697.06;;;10.58;83.90
46782;BME280;32541;46.298;11.506;2023-05-16T10:20:44;88694.56;;;10.62;85.57
46782;BME280;32541;46.298;11.506;2023-05-16T10:23:16;88703.03;;;10.66;85.96
46782;BME280;32541;46.298;11.506;2023-05-16T10:25:41;88701.47;;;10.63;88.45
46782;BME280;32541;46.298;11.506;2023-05-16T10:28:09;88706.38;;;10.65;88.30
46782;BME280;32541;46.298;11.506;2023-05-16T10:30:36;88713.66;;;10.72;88.57
46782;BME280;32541;46.298;11.506;2023-05-16T10:33:04;88699.31;;;10.73;89.40
46782;BME280;32541;46.298;11.506;2023-05-16T10:35:30;88698.94;;;10.79;89.91
46782;BME280;32541;46.298;11.506;2023-05-16T10:37:57;88702.50;;;10.81;89.44
46782;BME280;32541;46.298;11.506;2023-05-16T10:40:23;88708.09;;;10.46;94.61
46782;BME280;32541;46.298;11.506;2023-05-16T10:42:56;88710.94;;;9.79;93.77
46782;BME280;32541;46.298;11.506;2023-05-16T10:45:22;88711.66;;;9.79;96.62
46782;BME280;32541;46.298;11.506;2023-05-16T10:47:58;88701.41;;;9.91;94.79
46782;BME280;32541;46.298;11.506;2023-05-16T10:50:31;88704.47;;;9.74;97.86
46782;BME280;32541;46.298;11.506;2023-05-16T10:53:52;88707.31;;;9.53;98.01
46782;BME280;32541;46.298;11.506;2023-05-16T11:06:24;88709.97;;;9.74;97.98
46782;BME280;32541;46.298;11.506;2023-05-16T11:09:27;88698.28;;;9.85;98.51
46782;BME280;32541;46.298;11.506;2023-05-16T11:12:01;88707.88;;;10.19;93.65
46782;BME280;32541;46.298;11.506;2023-05-16T11:14:28;88700.22;;;10.29;92.79
46782;BME280;32541;46.298;11.506;2023-05-16T11:17:03;88692.81;;;10.32;91.77
46782;BME280;32541;46.298;11.506;2023-05-16T11:19:42;88693.75;;;10.25;87.57
46782;BME280;32541;46.298;11.506;2023-05-16T11:27:30;88691.59;;;10.35;90.82
46782;BME280;32541;46.298;11.506;2023-05-16T11:32:34;88696.13;;;10.53;89.18
46782;BME280;32541;46.298;11.506;2023-05-16T11:35:00;88681.78;;;10.55;89.19
46782;BME280;32541;46.298;11.506;2023-05-16T11:37:26;88684.88;;;10.61;87.03
46782;BME280;32541;46.298;11.506;2023-05-16T11:39:51;88687.97;;;10.67;84.02
46782;BME280;32541;46.298;11.506;2023-05-16T11:42:17;88691.06;;;10.73;85.46
46782;BME280;32541;46.298;11.506;2023-05-16T11:44:43;88690.97;;;10.71;84.17
46782;BME280;32541;46.298;11.506;2023-05-16T11:47:09;88689.03;;;10.74;84.27
46782;BME280;32541;46.298;11.506;2023-05-16T11:49:34;88693.31;;;10.77;85.28
46782;BME280;32541;46.298;11.506;2023-05-16T11:52:01;88689.97;;;10.78;85.71
46782;BME280;32541;46.298;11.506;2023-05-16T11:54:27;88681.22;;;10.82;86.67
46782;BME280;32541;46.298;11.506;2023-05-16T11:56:52;88670.66;;;11.01;90.25
46782;BME280;32541;46.298;11.506;2023-05-16T11:59:18;88671.31;;;11.13;88.67
46782;BME280;32541;46.298;11.506;2023-05-16T12:01:44;88665.03;;;10.99;86.11
46782;BME280;32541;46.298;11.506;2023-05-16T12:04:14;88669.31;;;11.02;87.00
46782;BME280;32541;46.298;11.506;2023-05-16T12:06:41;88665.16;;;11.01;86.50
46782;BME280;32541;46.298;11.506;2023-05-16T12:09:14;88667.53;;;11.07;86.28
46782;BME280;32541;46.298;11.506;2023-05-16T12:11:41;88657.78;;;11.18;86.40
46782;BME280;32541;46.298;11.506;2023-05-16T12:14:08;88659.59;;;11.13;83.89
46782;BME280;32541;46.298;11.506;2023-05-16T12:16:35;88660.69;;;11.33;83.10
46782;BME280;32541;46.298;11.506;2023-05-16T12:19:02;88666.59;;;11.28;81.79
46782;BME280;32541;46.298;11.506;2023-05-16T12:21:30;88662.97;;;11.37;79.36
46782;BME280;32541;46.298;11.506;2023-05-16T12:23:56;88658.38;;;11.41;80.55
46782;BME280;32541;46.298;11.506;2023-05-16T12:26:26;88666.56;;;11.53;80.37
46782;BME280;32541;46.298;11.506;2023-05-16T12:29:01;88673.50;;;11.54;79.15
46782;BME280;32541;46.298;11.506;2023-05-16T12:31:29;88665.09;;;11.63;81.94
46782;BME280;32541;46.298;11.506;2023-05-16T12:33:55;88667.63;;;11.85;79.86
46782;BME280;32541;46.298;11.506;2023-05-16T12:36:22;88662.00;;;11.57;79.08
46782;BME280;32541;46.298;11.506;2023-05-16T12:38:49;88664.56;;;11.28;81.05
46782;BME280;32541;46.298;11.506;2023-05-16T12:41:18;88672.06;;;10.77;79.24
46782;BME280;32541;46.298;11.506;2023-05-16T12:43:44;88663.28;;;10.92;79.09
46782;BME280;32541;46.298;11.506;2023-05-16T12:46:10;88661.84;;;10.91;79.77
46782;BME280;32541;46.298;11.506;2023-05-16T12:48:39;88661.94;;;10.93;80.78
46782;BME280;32541;46.298;11.506;2023-05-16T12:51:13;88653.34;;;10.50;82.95
46782;BME280;32541;46.298;11.506;2023-05-16T12:53:44;88656.44;;;10.56;86.15
46782;BME280;32541;46.298;11.506;2023-05-16T12:56:11;88645.63;;;10.72;80.02
46782;BME280;32541;46.298;11.506;2023-05-16T12:58:37;88649.06;;;10.47;77.51
46782;BME280;32541;46.298;11.506;2023-05-16T13:01:03;88658.81;;;10.62;78.09
46782;BME280;32541;46.298;11.506;2023-05-16T13:03:30;88648.50;;;10.74;77.86
46782;BME280;32541;46.298;11.506;2023-05-16T13:05:55;88648.50;;;10.74;80.15
46782;BME280;32541;46.298;11.506;2023-05-16T13:08:21;88643.56;;;10.84;77.66
46782;BME280;32541;46.298;11.506;2023-05-16T13:10:46;88638.44;;;10.79;76.84
46782;BME280;32541;46.298;11.506;2023-05-16T13:13:11;88639.91;;;10.68;75.75
46782;BME280;32541;46.298;11.506;2023-05-16T13:15:38;88642.25;;;10.85;77.28
46782;BME280;32541;46.298;11.506;2023-05-16T13:18:04;88638.63;;;10.94;79.17
46782;BME280;32541;46.298;11.506;2023-05-16T13:20:29;88638.09;;;11.09;75.81
46782;BME280;32541;46.298;11.506;2023-05-16T13:22:55;88632.78;;;11.13;74.95
46782;BME280;32541;46.298;11.506;2023-05-16T13:25:20;88635.88;;;10.94;75.77
46782;BME280;32541;46.298;11.506;2023-05-16T13:27:45;88632.25;;;11.03;76.64
46782;BME280;32541;46.298;11.506;2023-05-16T13:30:13;88631.63;;;11.05;75.45